createdAt,value
2022-12-27T11:21:25.810Z,12.40
2022-12-27T11:26:24.643Z,12.70
2022-12-27T11:31:21.238Z,13.00
2022-12-27T11:36:25.116Z,13.00
2022-12-27T11:41:27.682Z,13.70
2022-12-27T11:46:29.284Z,14.20
2022-12-27T11:51:47.974Z,14.90
2022-12-27T11:56:44.630Z,15.40
2022-12-27T12:02:08.558Z,15.20
2022-12-27T12:07:17.830Z,15.60
2022-12-27T12:12:32.918Z,15.00
2022-12-27T12:17:58.538Z,15.10
2022-12-27T12:23:08.239Z,15.10
2022-12-27T12:28:58.190Z,15.20
2022-12-27T12:34:04.417Z,15.50
2022-12-27T12:39:08.825Z,16.10
2022-12-27T12:44:30.138Z,16.70
2022-12-27T12:49:42.401Z,16.90
2022-12-27T12:54:55.071Z,16.60
2022-12-27T13:00:04.992Z,15.90
2022-12-27T13:05:11.575Z,15.40
2022-12-27T13:10:37.538Z,14.40
2022-12-27T13:15:48.326Z,13.90
2022-12-27T13:21:18.803Z,13.50
2022-12-27T13:26:21.171Z,13.20
2022-12-27T13:31:31.425Z,12.90
2022-12-27T13:36:31.119Z,12.60
2022-12-27T13:41:39.698Z,12.40
2022-12-27T13:47:18.238Z,12.20
2022-12-27T13:52:34.626Z,12.10
2022-12-27T13:57:51.337Z,12.00
2022-12-27T14:03:24.646Z,11.60
2022-12-27T14:08:34.360Z,11.40
2022-12-27T14:13:33.607Z,11.10
2022-12-27T14:18:55.567Z,11.00
2022-12-27T14:24:13.204Z,10.80
2022-12-27T14:29:48.520Z,10.70
2022-12-27T14:35:19.582Z,10.70
2022-12-27T14:40:51.810Z,10.70
2022-12-27T14:46:13.528Z,10.60
2022-12-27T14:52:00.165Z,10.40
2022-12-27T14:57:06.197Z,10.10
2022-12-27T15:02:20.080Z,9.80
2022-12-27T15:07:35.407Z,9.60
2022-12-27T15:12:40.195Z,9.20
2022-12-27T15:17:53.125Z,9.00
2022-12-27T15:22:58.151Z,8.70
2022-12-27T15:28:03.079Z,8.40
2022-12-27T15:33:05.383Z,8.30
2022-12-27T15:38:09.320Z,8.00
2022-12-27T15:43:21.806Z,7.80
2022-12-27T15:48:53.244Z,7.60
